sensor_id;sensor_type;location;lat;lon;timestamp;P1;durP1;ratioP1;P2;durP2;ratioP2
23410;SDS011;11878;51.774;7.220;2022-10-16T00:02:15;7.37;;;3.33;;
23410;SDS011;11878;51.774;7.220;2022-10-16T00:05:17;7.60;;;3.90;;
23410;SDS011;11878;51.774;7.220;2022-10-16T00:08:18;8.87;;;3.30;;
23410;SDS011;11878;51.774;7.220;2022-10-16T00:11:21;5.60;;;3.20;;
23410;SDS011;11878;51.774;7.220;2022-10-16T00:14:25;5.37;;;3.20;;
23410;SDS011;11878;51.774;7.220;2022-10-16T00:17:26;7.43;;;4.03;;
23410;SDS011;11878;51.774;7.220;2022-10-16T00:20:28;9.30;;;3.53;;
23410;SDS011;11878;51.774;7.220;2022-10-16T00:23:30;6.40;;;3.57;;
23410;SDS011;11878;51.774;7.220;2022-10-16T00:26:33;7.43;;;3.73;;
23410;SDS011;11878;51.774;7.220;2022-10-16T00:29:35;5.63;;;3.03;;
23410;SDS011;11878;51.774;7.220;2022-10-16T00:32:37;6.47;;;2.93;;
23410;SDS011;11878;51.774;7.220;2022-10-16T00:35:39;9.57;;;3.10;;
23410;SDS011;11878;51.774;7.220;2022-10-16T00:38:40;7.27;;;4.00;;
23410;SDS011;11878;51.774;7.220;2022-10-16T00:41:42;6.83;;;3.00;;
23410;SDS011;11878;51.774;7.220;2022-10-16T00:44:51;7.33;;;2.70;;
23410;SDS011;11878;51.774;7.220;2022-10-16T00:47:56;7.00;;;2.70;;
23410;SDS011;11878;51.774;7.220;2022-10-16T00:50:58;5.17;;;2.37;;
23410;SDS011;11878;51.774;7.220;2022-10-16T00:54:02;6.43;;;2.63;;
23410;SDS011;11878;51.774;7.220;2022-10-16T00:57:05;12.43;;;2.53;;
23410;SDS011;11878;51.774;7.220;2022-10-16T01:00:09;7.60;;;2.57;;
23410;SDS011;11878;51.774;7.220;2022-10-16T01:03:29;7.50;;;2.03;;
23410;SDS011;11878;51.774;7.220;2022-10-16T01:06:46;4.03;;;1.87;;
23410;SDS011;11878;51.774;7.220;2022-10-16T01:13:55;8.20;;;2.40;;
23410;SDS011;11878;51.774;7.220;2022-10-16T01:17:03;4.00;;;1.83;;
23410;SDS011;11878;51.774;7.220;2022-10-16T01:20:22;5.77;;;2.73;;
23410;SDS011;11878;51.774;7.220;2022-10-16T01:23:49;5.67;;;2.33;;
23410;SDS011;11878;51.774;7.220;2022-10-16T01:30:25;5.73;;;2.13;;
23410;SDS011;11878;51.774;7.220;2022-10-16T01:33:34;5.90;;;2.03;;
23410;SDS011;11878;51.774;7.220;2022-10-16T01:36:52;3.27;;;2.17;;
23410;SDS011;11878;51.774;7.220;2022-10-16T01:39:58;4.47;;;2.17;;
23410;SDS011;11878;51.774;7.220;2022-10-16T01:43:07;5.90;;;2.10;;
23410;SDS011;11878;51.774;7.220;2022-10-16T01:46:14;7.40;;;2.30;;
23410;SDS011;11878;51.774;7.220;2022-10-16T01:49:20;3.27;;;1.60;;
23410;SDS011;11878;51.774;7.220;2022-10-16T01:52:24;3.80;;;1.67;;
23410;SDS011;11878;51.774;7.220;2022-10-16T01:55:29;6.13;;;1.87;;
23410;SDS011;11878;51.774;7.220;2022-10-16T01:58:40;4.27;;;2.00;;
23410;SDS011;11878;51.774;7.220;2022-10-16T02:01:54;6.23;;;2.00;;
23410;SDS011;11878;51.774;7.220;2022-10-16T02:05:10;2.93;;;1.60;;
23410;SDS011;11878;51.774;7.220;2022-10-16T02:08:23;5.73;;;2.00;;
23410;SDS011;11878;51.774;7.220;2022-10-16T02:11:29;5.60;;;2.00;;
23410;SDS011;11878;51.774;7.220;2022-10-16T02:14:30;16.07;;;2.60;;
23410;SDS011;11878;51.774;7.220;2022-10-16T02:17:33;5.57;;;2.17;;
23410;SDS011;11878;51.774;7.220;2022-10-16T02:20:55;7.80;;;2.17;;
23410;SDS011;11878;51.774;7.220;2022-10-16T02:31:00;3.60;;;1.80;;
23410;SDS011;11878;51.774;7.220;2022-10-16T02:34:05;6.20;;;1.93;;
23410;SDS011;11878;51.774;7.220;2022-10-16T02:37:09;3.07;;;1.83;;
23410;SDS011;11878;51.774;7.220;2022-10-16T02:40:12;5.70;;;1.60;;
23410;SDS011;11878;51.774;7.220;2022-10-16T02:43:15;2.10;;;1.60;;
23410;SDS011;11878;51.774;7.220;2022-10-16T02:46:17;4.90;;;1.60;;
23410;SDS011;11878;51.774;7.220;2022-10-16T02:49:20;8.90;;;1.90;;
23410;SDS011;11878;51.774;7.220;2022-10-16T02:52:21;3.37;;;1.67;;
23410;SDS011;11878;51.774;7.220;2022-10-16T02:55:24;3.50;;;2.20;;
23410;SDS011;11878;51.774;7.220;2022-10-16T02:58:25;3.10;;;1.63;;
23410;SDS011;11878;51.774;7.220;2022-10-16T03:01:27;4.67;;;1.57;;
23410;SDS011;11878;51.774;7.220;2022-10-16T03:04:29;5.17;;;1.80;;
23410;SDS011;11878;51.774;7.220;2022-10-16T03:07:31;3.23;;;1.53;;
23410;SDS011;11878;51.774;7.220;2022-10-16T03:10:32;4.00;;;1.87;;
23410;SDS011;11878;51.774;7.220;2022-10-16T03:13:34;2.80;;;1.53;;
23410;SDS011;11878;51.774;7.220;2022-10-16T03:16:36;3.63;;;1.37;;
23410;SDS011;11878;51.774;7.220;2022-10-16T03:19:38;2.40;;;1.63;;
23410;SDS011;11878;51.774;7.220;2022-10-16T03:22:40;3.67;;;1.50;;
23410;SDS011;11878;51.774;7.220;2022-10-16T03:25:41;3.53;;;1.37;;
23410;SDS011;11878;51.774;7.220;2022-10-16T03:28:43;6.33;;;1.57;;
23410;SDS011;11878;51.774;7.220;2022-10-16T03:31:45;6.27;;;1.80;;
23410;SDS011;11878;51.774;7.220;2022-10-16T03:34:46;4.47;;;1.50;;
23410;SDS011;11878;51.774;7.220;2022-10-16T03:37:48;6.00;;;1.60;;
23410;SDS011;11878;51.774;7.220;2022-10-16T03:40:50;5.17;;;1.97;;
23410;SDS011;11878;51.774;7.220;2022-10-16T03:43:52;4.23;;;2.20;;
23410;SDS011;11878;51.774;7.220;2022-10-16T03:46:53;4.07;;;2.10;;
23410;SDS011;11878;51.774;7.220;2022-10-16T03:49:55;4.00;;;2.00;;
23410;SDS011;11878;51.774;7.220;2022-10-16T03:52:57;4.90;;;2.03;;
23410;SDS011;11878;51.774;7.220;2022-10-16T03:55:58;3.67;;;2.03;;
23410;SDS011;11878;51.774;7.220;2022-10-16T03:59:00;5.97;;;1.90;;
23410;SDS011;11878;51.774;7.220;2022-10-16T04:02:02;6.93;;;2.20;;
23410;SDS011;11878;51.774;7.220;2022-10-16T04:05:04;4.13;;;2.10;;
23410;SDS011;11878;51.774;7.220;2022-10-16T04:08:06;6.47;;;2.07;;
23410;SDS011;11878;51.774;7.220;2022-10-16T04:11:08;5.27;;;2.00;;
23410;SDS011;11878;51.774;7.220;2022-10-16T04:14:10;6.63;;;2.40;;
23410;SDS011;11878;51.774;7.220;2022-10-16T04:17:11;5.37;;;1.90;;
23410;SDS011;11878;51.774;7.220;2022-10-16T04:20:13;6.90;;;2.23;;
23410;SDS011;11878;51.774;7.220;2022-10-16T04:23:15;4.60;;;1.90;;
23410;SDS011;11878;51.774;7.220;2022-10-16T04:26:17;3.57;;;1.87;;
23410;SDS011;11878;51.774;7.220;2022-10-16T04:29:19;5.60;;;2.30;;
23410;SDS011;11878;51.774;7.220;2022-10-16T04:32:20;7.60;;;2.20;;
23410;SDS011;11878;51.774;7.220;2022-10-16T04:35:22;8.23;;;2.17;;
23410;SDS011;11878;51.774;7.220;2022-10-16T04:38:24;6.00;;;1.53;;
23410;SDS011;11878;51.774;7.220;2022-10-16T04:41:26;11.60;;;2.47;;
23410;SDS011;11878;51.774;7.220;2022-10-16T04:44:27;3.43;;;1.87;;
23410;SDS011;11878;51.774;7.220;2022-10-16T04:47:29;5.67;;;1.67;;
23410;SDS011;11878;51.774;7.220;2022-10-16T04:50:31;3.23;;;1.40;;
23410;SDS011;11878;51.774;7.220;2022-10-16T04:53:39;3.10;;;1.97;;
23410;SDS011;11878;51.774;7.220;2022-10-16T04:56:40;3.37;;;1.50;;
23410;SDS011;11878;51.774;7.220;2022-10-16T04:59:47;1.70;;;1.30;;
23410;SDS011;11878;51.774;7.220;2022-10-16T05:02:50;3.07;;;1.40;;
23410;SDS011;11878;51.774;7.220;2022-10-16T05:05:52;2.67;;;1.70;;
23410;SDS011;11878;51.774;7.220;2022-10-16T05:08:53;2.97;;;1.00;;
23410;SDS011;11878;51.774;7.220;2022-10-16T05:11:55;1.40;;;0.90;;
23410;SDS011;11878;51.774;7.220;2022-10-16T05:14:57;1.83;;;0.90;;
23410;SDS011;11878;51.774;7.220;2022-10-16T05:18:00;3.33;;;1.00;;
23410;SDS011;11878;51.774;7.220;2022-10-16T05:21:01;2.67;;;1.10;;
23410;SDS011;11878;51.774;7.220;2022-10-16T05:24:03;1.07;;;0.97;;
23410;SDS011;11878;51.774;7.220;2022-10-16T05:27:05;3.40;;;0.90;;
23410;SDS011;11878;51.774;7.220;2022-10-16T05:30:07;2.30;;;1.00;;
23410;SDS011;11878;51.774;7.220;2022-10-16T05:33:12;1.93;;;0.90;;
23410;SDS011;11878;51.774;7.220;2022-10-16T05:36:14;2.93;;;1.00;;
23410;SDS011;11878;51.774;7.220;2022-10-16T05:39:16;4.00;;;1.10;;
23410;SDS011;11878;51.774;7.220;2022-10-16T05:42:17;2.03;;;1.10;;
23410;SDS011;11878;51.774;7.220;2022-10-16T05:45:19;6.43;;;1.20;;
23410;SDS011;11878;51.774;7.220;2022-10-16T05:48:21;2.10;;;0.97;;
23410;SDS011;11878;51.774;7.220;2022-10-16T05:51:24;1.63;;;1.00;;
23410;SDS011;11878;51.774;7.220;2022-10-16T05:54:26;3.00;;;0.80;;
23410;SDS011;11878;51.774;7.220;2022-10-16T05:57:27;3.37;;;1.53;;
23410;SDS011;11878;51.774;7.220;2022-10-16T06:00:29;2.63;;;1.30;;
23410;SDS011;11878;51.774;7.220;2022-10-16T06:03:31;2.07;;;1.07;;
23410;SDS011;11878;51.774;7.220;2022-10-16T06:06:32;2.20;;;1.00;;
23410;SDS011;11878;51.774;7.220;2022-10-16T06:09:34;4.63;;;1.27;;
23410;SDS011;11878;51.774;7.220;2022-10-16T06:12:36;2.53;;;1.27;;
23410;SDS011;11878;51.774;7.220;2022-10-16T06:15:38;3.33;;;1.07;;
23410;SDS011;11878;51.774;7.220;2022-10-16T06:18:42;2.80;;;1.10;;
23410;SDS011;11878;51.774;7.220;2022-10-16T06:21:44;1.10;;;0.73;;
23410;SDS011;11878;51.774;7.220;2022-10-16T06:24:46;2.83;;;1.10;;
23410;SDS011;11878;51.774;7.220;2022-10-16T06:27:48;3.50;;;1.53;;
23410;SDS011;11878;51.774;7.220;2022-10-16T06:30:58;2.67;;;1.40;;
23410;SDS011;11878;51.774;7.220;2022-10-16T06:34:09;3.13;;;1.30;;
23410;SDS011;11878;51.774;7.220;2022-10-16T06:37:11;2.87;;;1.40;;
23410;SDS011;11878;51.774;7.220;2022-10-16T06:40:13;4.27;;;1.20;;
23410;SDS011;11878;51.774;7.220;2022-10-16T06:43:15;3.43;;;1.30;;
23410;SDS011;11878;51.774;7.220;2022-10-16T06:46:18;3.80;;;1.87;;
23410;SDS011;11878;51.774;7.220;2022-10-16T06:49:21;9.30;;;2.37;;
23410;SDS011;11878;51.774;7.220;2022-10-16T06:52:24;3.10;;;1.27;;
23410;SDS011;11878;51.774;7.220;2022-10-16T06:55:26;3.57;;;1.00;;
23410;SDS011;11878;51.774;7.220;2022-10-16T06:58:28;4.90;;;1.07;;
23410;SDS011;11878;51.774;7.220;2022-10-16T07:01:29;3.57;;;1.30;;
23410;SDS011;11878;51.774;7.220;2022-10-16T07:04:31;1.63;;;1.03;;
23410;SDS011;11878;51.774;7.220;2022-10-16T07:07:33;2.00;;;1.10;;
23410;SDS011;11878;51.774;7.220;2022-10-16T07:10:35;4.50;;;1.37;;
23410;SDS011;11878;51.774;7.220;2022-10-16T07:13:37;4.60;;;0.93;;
23410;SDS011;11878;51.774;7.220;2022-10-16T07:16:40;2.13;;;0.87;;
23410;SDS011;11878;51.774;7.220;2022-10-16T07:19:41;2.97;;;1.00;;
23410;SDS011;11878;51.774;7.220;2022-10-16T07:22:43;10.53;;;1.70;;
23410;SDS011;11878;51.774;7.220;2022-10-16T07:25:45;4.03;;;1.47;;
23410;SDS011;11878;51.774;7.220;2022-10-16T07:28:46;4.47;;;1.97;;
23410;SDS011;11878;51.774;7.220;2022-10-16T07:31:49;2.63;;;1.50;;
23410;SDS011;11878;51.774;7.220;2022-10-16T07:34:51;5.33;;;1.83;;
23410;SDS011;11878;51.774;7.220;2022-10-16T07:37:53;5.23;;;1.60;;
23410;SDS011;11878;51.774;7.220;2022-10-16T07:41:01;13.13;;;1.87;;
23410;SDS011;11878;51.774;7.220;2022-10-16T07:44:05;4.00;;;1.70;;
23410;SDS011;11878;51.774;7.220;2022-10-16T07:47:07;3.17;;;1.87;;
23410;SDS011;11878;51.774;7.220;2022-10-16T07:50:09;3.30;;;1.80;;
23410;SDS011;11878;51.774;7.220;2022-10-16T07:53:11;4.13;;;1.80;;
23410;SDS011;11878;51.774;7.220;2022-10-16T07:56:13;1.67;;;1.27;;
23410;SDS011;11878;51.774;7.220;2022-10-16T07:59:16;2.77;;;1.20;;
23410;SDS011;11878;51.774;7.220;2022-10-16T08:02:18;4.80;;;1.47;;
23410;SDS011;11878;51.774;7.220;2022-10-16T08:05:19;5.80;;;1.40;;
23410;SDS011;11878;51.774;7.220;2022-10-16T08:08:21;3.77;;;1.50;;
23410;SDS011;11878;51.774;7.220;2022-10-16T08:11:23;2.07;;;1.30;;
23410;SDS011;11878;51.774;7.220;2022-10-16T08:14:24;5.80;;;1.30;;
23410;SDS011;11878;51.774;7.220;2022-10-16T08:17:26;5.37;;;1.60;;
23410;SDS011;11878;51.774;7.220;2022-10-16T08:20:29;2.57;;;1.30;;
23410;SDS011;11878;51.774;7.220;2022-10-16T08:23:32;3.10;;;1.50;;
23410;SDS011;11878;51.774;7.220;2022-10-16T08:26:34;2.90;;;1.40;;
23410;SDS011;11878;51.774;7.220;2022-10-16T08:29:35;3.57;;;1.43;;
23410;SDS011;11878;51.774;7.220;2022-10-16T08:32:37;3.67;;;1.40;;
23410;SDS011;11878;51.774;7.220;2022-10-16T08:35:39;5.73;;;1.40;;
23410;SDS011;11878;51.774;7.220;2022-10-16T08:38:41;3.20;;;1.30;;
23410;SDS011;11878;51.774;7.220;2022-10-16T08:45:15;3.67;;;1.70;;
23410;SDS011;11878;51.774;7.220;2022-10-16T08:48:27;4.93;;;1.60;;
23410;SDS011;11878;51.774;7.220;2022-10-16T08:51:45;5.40;;;0.93;;
23410;SDS011;11878;51.774;7.220;2022-10-16T08:54:51;4.67;;;1.40;;
23410;SDS011;11878;51.774;7.220;2022-10-16T08:57:54;3.03;;;1.27;;
23410;SDS011;11878;51.774;7.220;2022-10-16T09:00:57;4.70;;;1.37;;
23410;SDS011;11878;51.774;7.220;2022-10-16T09:07:34;5.37;;;1.53;;
23410;SDS011;11878;51.774;7.220;2022-10-16T09:11:12;6.17;;;1.40;;
23410;SDS011;11878;51.774;7.220;2022-10-16T09:18:35;5.37;;;1.00;;
23410;SDS011;11878;51.774;7.220;2022-10-16T09:21:42;4.47;;;1.50;;
23410;SDS011;11878;51.774;7.220;2022-10-16T09:24:46;4.63;;;1.20;;
23410;SDS011;11878;51.774;7.220;2022-10-16T09:27:48;5.40;;;1.27;;
23410;SDS011;11878;51.774;7.220;2022-10-16T09:30:54;4.97;;;0.77;;
23410;SDS011;11878;51.774;7.220;2022-10-16T09:33:59;5.57;;;0.90;;
23410;SDS011;11878;51.774;7.220;2022-10-16T09:37:08;1.07;;;0.60;;
23410;SDS011;11878;51.774;7.220;2022-10-16T09:40:23;1.70;;;0.60;;
23410;SDS011;11878;51.774;7.220;2022-10-16T09:43:40;5.23;;;0.97;;
23410;SDS011;11878;51.774;7.220;2022-10-16T09:46:47;4.87;;;1.00;;
23410;SDS011;11878;51.774;7.220;2022-10-16T09:53:13;4.87;;;0.80;;
23410;SDS011;11878;51.774;7.220;2022-10-16T09:56:23;5.43;;;0.70;;
23410;SDS011;11878;51.774;7.220;2022-10-16T09:59:27;0.97;;;0.50;;
23410;SDS011;11878;51.774;7.220;2022-10-16T10:02:35;3.10;;;1.10;;
23410;SDS011;11878;51.774;7.220;2022-10-16T10:05:41;6.30;;;0.90;;
23410;SDS011;11878;51.774;7.220;2022-10-16T10:08:56;1.50;;;0.63;;
23410;SDS011;11878;51.774;7.220;2022-10-16T10:12:00;7.03;;;0.87;;
23410;SDS011;11878;51.774;7.220;2022-10-16T10:15:10;2.47;;;0.63;;
23410;SDS011;11878;51.774;7.220;2022-10-16T10:18:17;5.50;;;0.80;;
23410;SDS011;11878;51.774;7.220;2022-10-16T10:21:21;4.30;;;0.60;;
23410;SDS011;11878;51.774;7.220;2022-10-16T10:24:22;3.57;;;0.70;;
23410;SDS011;11878;51.774;7.220;2022-10-16T10:28:10;3.80;;;0.60;;
23410;SDS011;11878;51.774;7.220;2022-10-16T10:37:40;2.37;;;0.60;;
23410;SDS011;11878;51.774;7.220;2022-10-16T10:40:54;2.17;;;0.80;;
23410;SDS011;11878;51.774;7.220;2022-10-16T10:51:26;6.70;;;0.83;;
23410;SDS011;11878;51.774;7.220;2022-10-16T10:55:06;1.37;;;0.90;;
23410;SDS011;11878;51.774;7.220;2022-10-16T11:01:59;5.97;;;1.77;;
23410;SDS011;11878;51.774;7.220;2022-10-16T11:08:43;3.80;;;1.53;;
23410;SDS011;11878;51.774;7.220;2022-10-16T11:15:19;7.00;;;1.53;;
23410;SDS011;11878;51.774;7.220;2022-10-16T11:21:44;1.57;;;0.60;;
23410;SDS011;11878;51.774;7.220;2022-10-16T11:31:36;3.30;;;0.63;;
23410;SDS011;11878;51.774;7.220;2022-10-16T11:35:00;5.27;;;0.70;;
23410;SDS011;11878;51.774;7.220;2022-10-16T11:38:11;5.33;;;1.43;;
23410;SDS011;11878;51.774;7.220;2022-10-16T11:44:55;2.97;;;0.93;;
23410;SDS011;11878;51.774;7.220;2022-10-16T11:48:07;2.93;;;0.90;;
23410;SDS011;11878;51.774;7.220;2022-10-16T11:51:40;3.70;;;0.90;;
23410;SDS011;11878;51.774;7.220;2022-10-16T11:57:58;1.40;;;0.70;;
23410;SDS011;11878;51.774;7.220;2022-10-16T12:01:18;2.93;;;0.63;;
23410;SDS011;11878;51.774;7.220;2022-10-16T12:04:33;2.97;;;0.93;;
23410;SDS011;11878;51.774;7.220;2022-10-16T12:07:59;2.43;;;0.73;;
23410;SDS011;11878;51.774;7.220;2022-10-16T12:17:37;2.90;;;0.70;;
23410;SDS011;11878;51.774;7.220;2022-10-16T12:20:39;1.40;;;0.40;;
23410;SDS011;11878;51.774;7.220;2022-10-16T12:23:54;2.50;;;0.57;;
23410;SDS011;11878;51.774;7.220;2022-10-16T12:26:57;2.00;;;0.40;;
23410;SDS011;11878;51.774;7.220;2022-10-16T12:29:59;1.70;;;0.43;;
23410;SDS011;11878;51.774;7.220;2022-10-16T12:33:04;2.17;;;0.50;;
23410;SDS011;11878;51.774;7.220;2022-10-16T12:36:27;0.73;;;0.30;;
23410;SDS011;11878;51.774;7.220;2022-10-16T12:39:32;2.93;;;0.60;;
23410;SDS011;11878;51.774;7.220;2022-10-16T12:42:34;8.00;;;1.20;;
23410;SDS011;11878;51.774;7.220;2022-10-16T12:45:35;2.57;;;0.57;;
23410;SDS011;11878;51.774;7.220;2022-10-16T12:48:38;4.00;;;0.60;;
23410;SDS011;11878;51.774;7.220;2022-10-16T12:51:49;5.30;;;0.70;;
23410;SDS011;11878;51.774;7.220;2022-10-16T12:54:51;3.10;;;0.57;;
23410;SDS011;11878;51.774;7.220;2022-10-16T13:01:26;1.77;;;0.40;;
23410;SDS011;11878;51.774;7.220;2022-10-16T13:04:51;1.80;;;0.50;;
23410;SDS011;11878;51.774;7.220;2022-10-16T13:15:09;5.80;;;0.80;;
23410;SDS011;11878;51.774;7.220;2022-10-16T13:21:29;3.17;;;0.60;;
23410;SDS011;11878;51.774;7.220;2022-10-16T13:28:40;0.77;;;0.30;;
23410;SDS011;11878;51.774;7.220;2022-10-16T13:31:42;3.33;;;0.93;;
23410;SDS011;11878;51.774;7.220;2022-10-16T13:34:45;3.73;;;0.60;;
23410;SDS011;11878;51.774;7.220;2022-10-16T13:37:50;4.83;;;0.70;;
23410;SDS011;11878;51.774;7.220;2022-10-16T13:40:53;1.17;;;0.50;;
23410;SDS011;11878;51.774;7.220;2022-10-16T13:43:56;3.13;;;0.50;;
23410;SDS011;11878;51.774;7.220;2022-10-16T13:47:01;2.40;;;0.53;;
23410;SDS011;11878;51.774;7.220;2022-10-16T13:50:11;6.53;;;0.70;;
23410;SDS011;11878;51.774;7.220;2022-10-16T13:53:14;5.77;;;0.70;;
23410;SDS011;11878;51.774;7.220;2022-10-16T13:56:18;3.17;;;0.70;;
23410;SDS011;11878;51.774;7.220;2022-10-16T13:59:25;2.17;;;0.50;;
23410;SDS011;11878;51.774;7.220;2022-10-16T14:02:38;3.88;;;0.63;;
23410;SDS011;11878;51.774;7.220;2022-10-16T14:05:48;3.80;;;0.60;;
23410;SDS011;11878;51.774;7.220;2022-10-16T14:08:58;2.13;;;0.63;;
23410;SDS011;11878;51.774;7.220;2022-10-16T14:12:12;6.72;;;0.68;;
23410;SDS011;11878;51.774;7.220;2022-10-16T14:15:17;1.85;;;0.70;;
23410;SDS011;11878;51.774;7.220;2022-10-16T14:18:21;1.52;;;0.50;;
23410;SDS011;11878;51.774;7.220;2022-10-16T14:21:26;5.50;;;0.98;;
23410;SDS011;11878;51.774;7.220;2022-10-16T14:24:34;2.85;;;0.60;;
23410;SDS011;11878;51.774;7.220;2022-10-16T14:27:36;4.10;;;0.85;;
23410;SDS011;11878;51.774;7.220;2022-10-16T14:30:48;9.05;;;0.95;;
23410;SDS011;11878;51.774;7.220;2022-10-16T14:34:00;4.45;;;0.70;;
23410;SDS011;11878;51.774;7.220;2022-10-16T14:40:29;4.25;;;0.75;;
23410;SDS011;11878;51.774;7.220;2022-10-16T14:43:34;2.35;;;0.60;;
23410;SDS011;11878;51.774;7.220;2022-10-16T14:46:41;5.93;;;0.80;;
23410;SDS011;11878;51.774;7.220;2022-10-16T14:49:44;2.30;;;0.57;;
23410;SDS011;11878;51.774;7.220;2022-10-16T14:52:46;3.25;;;0.82;;
23410;SDS011;11878;51.774;7.220;2022-10-16T14:55:48;1.77;;;0.50;;
23410;SDS011;11878;51.774;7.220;2022-10-16T14:58:50;3.65;;;1.50;;
23410;SDS011;11878;51.774;7.220;2022-10-16T15:01:53;4.38;;;0.90;;
23410;SDS011;11878;51.774;7.220;2022-10-16T15:04:55;2.38;;;0.90;;
23410;SDS011;11878;51.774;7.220;2022-10-16T15:07:57;2.20;;;1.00;;
23410;SDS011;11878;51.774;7.220;2022-10-16T15:10:58;1.25;;;0.60;;
23410;SDS011;11878;51.774;7.220;2022-10-16T15:14:01;2.22;;;0.90;;
23410;SDS011;11878;51.774;7.220;2022-10-16T15:17:02;3.53;;;1.10;;
23410;SDS011;11878;51.774;7.220;2022-10-16T15:20:04;4.10;;;0.95;;
23410;SDS011;11878;51.774;7.220;2022-10-16T15:23:14;2.30;;;0.60;;
23410;SDS011;11878;51.774;7.220;2022-10-16T15:26:18;4.20;;;0.80;;
23410;SDS011;11878;51.774;7.220;2022-10-16T15:29:19;2.15;;;0.88;;
23410;SDS011;11878;51.774;7.220;2022-10-16T15:32:21;5.05;;;0.80;;
23410;SDS011;11878;51.774;7.220;2022-10-16T15:35:23;4.07;;;0.93;;
23410;SDS011;11878;51.774;7.220;2022-10-16T15:38:25;7.60;;;0.90;;
23410;SDS011;11878;51.774;7.220;2022-10-16T15:41:28;4.38;;;1.13;;
23410;SDS011;11878;51.774;7.220;2022-10-16T15:44:30;2.25;;;0.68;;
23410;SDS011;11878;51.774;7.220;2022-10-16T15:47:31;2.53;;;0.85;;
23410;SDS011;11878;51.774;7.220;2022-10-16T15:50:33;2.67;;;1.10;;
23410;SDS011;11878;51.774;7.220;2022-10-16T15:53:37;4.55;;;1.13;;
23410;SDS011;11878;51.774;7.220;2022-10-16T15:56:39;6.97;;;1.58;;
23410;SDS011;11878;51.774;7.220;2022-10-16T15:59:41;3.93;;;1.40;;
23410;SDS011;11878;51.774;7.220;2022-10-16T16:02:43;3.57;;;1.53;;
23410;SDS011;11878;51.774;7.220;2022-10-16T16:05:50;5.77;;;1.90;;
23410;SDS011;11878;51.774;7.220;2022-10-16T16:08:52;6.83;;;2.33;;
23410;SDS011;11878;51.774;7.220;2022-10-16T16:11:53;8.53;;;2.70;;
23410;SDS011;11878;51.774;7.220;2022-10-16T16:14:55;4.90;;;1.70;;
23410;SDS011;11878;51.774;7.220;2022-10-16T16:18:01;7.20;;;2.03;;
23410;SDS011;11878;51.774;7.220;2022-10-16T16:21:10;6.80;;;1.83;;
23410;SDS011;11878;51.774;7.220;2022-10-16T16:24:13;4.57;;;1.43;;
23410;SDS011;11878;51.774;7.220;2022-10-16T16:27:14;7.00;;;1.50;;
23410;SDS011;11878;51.774;7.220;2022-10-16T16:30:16;8.50;;;1.73;;
23410;SDS011;11878;51.774;7.220;2022-10-16T16:33:22;5.33;;;1.40;;
23410;SDS011;11878;51.774;7.220;2022-10-16T16:36:25;6.27;;;1.63;;
23410;SDS011;11878;51.774;7.220;2022-10-16T16:39:27;5.40;;;1.93;;
23410;SDS011;11878;51.774;7.220;2022-10-16T16:42:28;6.07;;;2.33;;
23410;SDS011;11878;51.774;7.220;2022-10-16T16:45:30;7.00;;;2.93;;
23410;SDS011;11878;51.774;7.220;2022-10-16T16:48:37;8.97;;;2.83;;
23410;SDS011;11878;51.774;7.220;2022-10-16T16:51:39;6.63;;;3.47;;
23410;SDS011;11878;51.774;7.220;2022-10-16T16:54:41;10.23;;;3.63;;
23410;SDS011;11878;51.774;7.220;2022-10-16T16:57:42;6.43;;;3.27;;
23410;SDS011;11878;51.774;7.220;2022-10-16T17:00:45;10.47;;;5.50;;
23410;SDS011;11878;51.774;7.220;2022-10-16T17:03:57;6.73;;;4.10;;
23410;SDS011;11878;51.774;7.220;2022-10-16T17:07:00;8.93;;;4.70;;
23410;SDS011;11878;51.774;7.220;2022-10-16T17:10:02;10.87;;;4.87;;
23410;SDS011;11878;51.774;7.220;2022-10-16T17:13:04;4.87;;;2.47;;
23410;SDS011;11878;51.774;7.220;2022-10-16T17:16:06;6.50;;;2.53;;
23410;SDS011;11878;51.774;7.220;2022-10-16T17:19:09;5.83;;;2.57;;
23410;SDS011;11878;51.774;7.220;2022-10-16T17:22:13;5.70;;;2.90;;
23410;SDS011;11878;51.774;7.220;2022-10-16T17:25:15;9.27;;;3.03;;
23410;SDS011;11878;51.774;7.220;2022-10-16T17:28:17;8.07;;;2.60;;
23410;SDS011;11878;51.774;7.220;2022-10-16T17:31:20;9.00;;;2.77;;
23410;SDS011;11878;51.774;7.220;2022-10-16T17:34:24;11.53;;;5.37;;
23410;SDS011;11878;51.774;7.220;2022-10-16T17:37:25;20.10;;;9.37;;
23410;SDS011;11878;51.774;7.220;2022-10-16T17:40:27;13.73;;;5.53;;
23410;SDS011;11878;51.774;7.220;2022-10-16T17:43:29;7.87;;;4.20;;
23410;SDS011;11878;51.774;7.220;2022-10-16T17:46:31;10.60;;;4.23;;
23410;SDS011;11878;51.774;7.220;2022-10-16T17:49:40;10.57;;;4.33;;
23410;SDS011;11878;51.774;7.220;2022-10-16T17:52:42;5.13;;;3.93;;
23410;SDS011;11878;51.774;7.220;2022-10-16T17:55:43;6.40;;;3.73;;
23410;SDS011;11878;51.774;7.220;2022-10-16T17:58:48;6.13;;;3.00;;
23410;SDS011;11878;51.774;7.220;2022-10-16T18:01:52;6.87;;;3.23;;
23410;SDS011;11878;51.774;7.220;2022-10-16T18:04:54;6.07;;;2.70;;
23410;SDS011;11878;51.774;7.220;2022-10-16T18:07:55;6.10;;;3.10;;
23410;SDS011;11878;51.774;7.220;2022-10-16T18:10:58;5.17;;;2.67;;
23410;SDS011;11878;51.774;7.220;2022-10-16T18:13:59;6.80;;;2.50;;
23410;SDS011;11878;51.774;7.220;2022-10-16T18:17:01;6.10;;;2.80;;
23410;SDS011;11878;51.774;7.220;2022-10-16T18:20:04;6.83;;;2.73;;
23410;SDS011;11878;51.774;7.220;2022-10-16T18:23:07;9.60;;;2.83;;
23410;SDS011;11878;51.774;7.220;2022-10-16T18:26:10;5.63;;;2.70;;
23410;SDS011;11878;51.774;7.220;2022-10-16T18:29:12;6.73;;;2.97;;
23410;SDS011;11878;51.774;7.220;2022-10-16T18:32:14;5.70;;;2.80;;
23410;SDS011;11878;51.774;7.220;2022-10-16T18:35:16;9.70;;;4.23;;
23410;SDS011;11878;51.774;7.220;2022-10-16T18:38:18;10.37;;;3.93;;
23410;SDS011;11878;51.774;7.220;2022-10-16T18:41:21;7.57;;;3.90;;
23410;SDS011;11878;51.774;7.220;2022-10-16T18:44:23;7.00;;;3.40;;
23410;SDS011;11878;51.774;7.220;2022-10-16T18:47:24;8.30;;;3.23;;
23410;SDS011;11878;51.774;7.220;2022-10-16T18:50:26;5.73;;;3.07;;
23410;SDS011;11878;51.774;7.220;2022-10-16T18:53:28;12.63;;;3.63;;
23410;SDS011;11878;51.774;7.220;2022-10-16T18:56:30;4.83;;;3.10;;
23410;SDS011;11878;51.774;7.220;2022-10-16T18:59:32;4.27;;;2.63;;
23410;SDS011;11878;51.774;7.220;2022-10-16T19:02:33;8.63;;;3.10;;
23410;SDS011;11878;51.774;7.220;2022-10-16T19:05:40;10.20;;;5.40;;
23410;SDS011;11878;51.774;7.220;2022-10-16T19:08:42;11.30;;;4.87;;
23410;SDS011;11878;51.774;7.220;2022-10-16T19:11:44;6.03;;;3.60;;
23410;SDS011;11878;51.774;7.220;2022-10-16T19:14:47;6.00;;;3.23;;
23410;SDS011;11878;51.774;7.220;2022-10-16T19:17:49;6.53;;;3.30;;
23410;SDS011;11878;51.774;7.220;2022-10-16T19:20:50;6.67;;;3.53;;
23410;SDS011;11878;51.774;7.220;2022-10-16T19:23:56;5.77;;;3.60;;
23410;SDS011;11878;51.774;7.220;2022-10-16T19:26:59;11.50;;;3.63;;
23410;SDS011;11878;51.774;7.220;2022-10-16T19:30:01;5.40;;;3.10;;
23410;SDS011;11878;51.774;7.220;2022-10-16T19:33:03;5.43;;;3.17;;
23410;SDS011;11878;51.774;7.220;2022-10-16T19:36:12;5.07;;;2.80;;
23410;SDS011;11878;51.774;7.220;2022-10-16T19:39:19;6.53;;;3.20;;
23410;SDS011;11878;51.774;7.220;2022-10-16T19:42:25;5.67;;;2.77;;
23410;SDS011;11878;51.774;7.220;2022-10-16T19:45:27;7.33;;;3.03;;
23410;SDS011;11878;51.774;7.220;2022-10-16T19:48:29;7.13;;;2.60;;
23410;SDS011;11878;51.774;7.220;2022-10-16T19:51:31;5.97;;;2.40;;
23410;SDS011;11878;51.774;7.220;2022-10-16T19:54:33;6.30;;;2.87;;
23410;SDS011;11878;51.774;7.220;2022-10-16T19:57:36;11.47;;;3.90;;
23410;SDS011;11878;51.774;7.220;2022-10-16T20:00:41;8.40;;;4.33;;
23410;SDS011;11878;51.774;7.220;2022-10-16T20:03:43;10.20;;;3.87;;
23410;SDS011;11878;51.774;7.220;2022-10-16T20:06:46;4.83;;;3.27;;
23410;SDS011;11878;51.774;7.220;2022-10-16T20:09:48;5.60;;;2.80;;
23410;SDS011;11878;51.774;7.220;2022-10-16T20:12:50;4.63;;;2.70;;